Time;durP1;ratioP1;P1;durP2;ratioP2;P2;SDS_P1;SDS_P2;PMS_P1;PMS_P2;Temp;Humidity;BMP_temperature;BMP_pressure;BME280_temperature;BME280_humidity;BME280_pressure;Samples;Min_cycle;Max_cycle;Signal;HPM_P1;HPM_P2
2023/06/04 00:01:08;;;;;;;9.10;2.78;;;;;;;13.60;62.39;102123.31;4982979;28;20474;-87
2023/06/04 00:03:34;;;;;;;6.70;2.60;;;;;;;13.59;64.34;102121.56;4991011;28;20030;-86
2023/06/04 00:05:59;;;;;;;5.65;2.42;;;;;;;13.61;64.00;102122.44;4992564;28;20065;-86
2023/06/04 00:08:25;;;;;;;4.93;2.53;;;;;;;13.61;63.66;102119.81;4991599;28;20111;-87
2023/06/04 00:10:50;;;;;;;5.22;2.40;;;;;;;13.61;62.53;102114.59;4973443;28;20058;-86
2023/06/04 00:13:16;;;;;;;6.20;2.30;;;;;;;13.61;62.34;102114.59;4974608;28;20038;-86
2023/06/04 00:15:41;;;;;;;5.15;2.40;;;;;;;13.63;63.02;102118.06;4991022;28;20511;-87
2023/06/04 00:18:07;;;;;;;3.53;2.13;;;;;;;13.61;61.85;102109.41;4991646;28;20027;-86
2023/06/04 00:20:32;;;;;;;3.92;2.30;;;;;;;13.62;64.80;102116.34;4992016;28;20030;-87
2023/06/04 00:22:58;;;;;;;4.45;2.30;;;;;;;13.60;63.05;102111.13;4990378;28;20026;-86
2023/06/04 00:25:23;;;;;;;5.90;2.65;;;;;;;13.57;63.88;102115.56;4991916;28;20053;-87
2023/06/04 00:27:48;;;;;;;4.43;2.45;;;;;;;13.59;64.33;102116.38;4973951;28;20033;-86
2023/06/04 00:30:14;;;;;;;4.03;2.08;;;;;;;13.56;65.06;102124.25;4991245;28;20034;-87
2023/06/04 00:32:40;;;;;;;3.55;2.38;;;;;;;13.51;64.17;102103.47;4973531;28;20026;-87
2023/06/04 00:35:05;;;;;;;6.00;2.50;;;;;;;13.50;64.96;102108.72;4974461;28;20036;-86
2023/06/04 00:37:31;;;;;;;4.50;2.35;;;;;;;13.49;63.71;102109.59;4991111;28;20061;-87
2023/06/04 00:39:56;;;;;;;3.97;2.17;;;;;;;13.49;66.06;102113.06;4994209;28;20038;-87
2023/06/04 00:42:23;;;;;;;3.97;2.22;;;;;;;13.48;64.86;102111.34;4990823;28;20771;-86
2023/06/04 00:44:49;;;;;;;4.93;2.28;;;;;;;13.44;64.91;102107.06;4991956;28;20023;-87
2023/06/04 00:47:15;;;;;;;4.05;2.47;;;;;;;13.46;66.46;102107.88;4991259;28;20034;-86
2023/06/04 00:49:41;;;;;;;6.55;2.30;;;;;;;13.42;64.86;102109.69;4992283;28;20030;-87
2023/06/04 00:52:13;;;;;;;4.88;2.40;;;;;;;13.39;63.98;102114.94;5000524;28;20430;-87
2023/06/04 00:54:38;;;;;;;5.07;2.20;;;;;;;13.37;66.05;102111.47;4997965;28;20029;-87
2023/06/04 00:57:04;;;;;;;5.60;2.50;;;;;;;13.34;66.23;102110.69;4990870;28;20469;-87
2023/06/04 00:59:35;;;;;;;4.20;2.17;;;;;;;13.33;66.27;102109.81;4991483;28;20497;-86
2023/06/04 01:02:09;;;;;;;5.45;2.47;;;;;;;13.29;66.20;102108.16;4990133;28;20042;-86
2023/06/04 01:04:42;;;;;;;4.65;2.45;;;;;;;13.28;66.81;102111.63;4991265;28;20018;-87
2023/06/04 01:07:09;;;;;;;6.30;2.40;;;;;;;13.21;66.82;102103.94;4980847;28;20176;-86
2023/06/04 01:09:36;;;;;;;6.13;2.60;;;;;;;13.19;65.21;102106.56;4990452;28;20368;-87
2023/06/04 01:12:08;;;;;;;4.22;2.45;;;;;;;13.19;65.94;102110.91;4994704;28;20038;-86
2023/06/04 01:14:34;;;;;;;5.22;2.28;;;;;;;13.19;65.11;102116.97;4995155;28;20081;-87
2023/06/04 01:17:08;;;;;;;3.10;2.28;;;;;;;13.17;65.96;102110.91;4993568;28;20466;-86
2023/06/04 01:19:54;;;;;;;;;;;;;;;13.21;64.84;102111.75;4995643;28;20045;-87
2023/06/04 01:22:40;;;;;;;3.72;2.33;;;;;;;13.16;66.04;102114.44;4993578;28;19924;-86
2023/06/04 01:25:12;;;;;;;4.93;2.38;;;;;;;13.10;66.94;102117.06;4977267;28;20018;-86
2023/06/04 01:27:40;;;;;;;3.50;2.10;;;;;;;13.05;67.99;102117.13;4994306;28;20049;-87
2023/06/04 01:30:08;;;;;;;6.13;2.42;;;;;;;13.00;66.27;102115.47;4994280;28;20538;-86
2023/06/04 01:32:33;;;;;;;6.18;2.58;;;;;;;13.01;68.28;102112.00;4994523;28;20549;-86
2023/06/04 01:34:59;;;;;;;4.38;2.55;;;;;;;12.97;67.88;102120.69;4992992;28;20030;-86
2023/06/04 01:37:26;;;;;;;4.57;2.55;;;;;;;12.93;67.93;102119.91;4994280;28;20031;-87
2023/06/04 01:39:51;;;;;;;4.90;2.05;;;;;;;12.91;69.03;102106.03;4994883;28;20034;-86
2023/06/04 01:42:17;;;;;;;5.15;2.50;;;;;;;12.88;68.19;102113.03;4994072;28;20023;-86
2023/06/04 01:44:42;;;;;;;4.25;2.50;;;;;;;12.84;68.25;102116.53;4994797;28;20031;-86
2023/06/04 01:47:07;;;;;;;5.28;2.50;;;;;;;12.79;67.64;102113.13;4994304;28;20488;-87
2023/06/04 01:49:33;;;;;;;4.75;2.55;;;;;;;12.78;68.02;102114.00;4993578;28;20042;-87
2023/06/04 01:51:58;;;;;;;5.73;2.50;;;;;;;12.73;68.32;102113.22;4993847;28;20033;-86
2023/06/04 01:54:23;;;;;;;4.28;2.30;;;;;;;12.71;68.64;102109.75;4976673;28;20297;-86
2023/06/04 01:56:49;;;;;;;4.55;2.60;;;;;;;12.69;68.16;102112.41;4993478;28;20033;-86
2023/06/04 01:59:16;;;;;;;4.55;2.30;;;;;;;12.67;68.51;102114.16;4992812;28;20058;-87
2023/06/04 02:01:42;;;;;;;6.00;2.40;;;;;;;12.64;67.49;102107.25;4976473;28;20078;-86
2023/06/04 02:04:07;;;;;;;4.18;2.30;;;;;;;12.59;68.39;102102.97;4993053;28;20022;-86
2023/06/04 02:06:32;;;;;;;4.65;2.58;;;;;;;12.59;68.99;102109.03;4994207;28;20359;-86
2023/06/04 02:08:58;;;;;;;4.87;2.40;;;;;;;12.56;67.96;102103.00;4994946;28;20161;-86
2023/06/04 02:11:23;;;;;;;5.77;2.50;;;;;;;12.57;69.66;102109.94;4993889;28;20285;-86
2023/06/04 02:13:48;;;;;;;5.15;2.22;;;;;;;12.53;68.47;102109.13;4993036;28;20289;-86
2023/06/04 02:16:14;;;;;;;3.83;2.65;;;;;;;12.52;70.13;102117.78;4993473;28;20045;-87
2023/06/04 02:18:39;;;;;;;4.90;2.40;;;;;;;12.49;69.91;102110.00;4992437;28;20367;-87
2023/06/04 02:21:05;;;;;;;4.40;2.42;;;;;;;12.48;69.51;102108.31;4975740;28;20387;-86
2023/06/04 02:23:30;;;;;;;4.88;2.55;;;;;;;12.42;69.13;102107.53;4993028;28;20032;-87
2023/06/04 02:25:55;;;;;;;3.58;2.42;;;;;;;12.39;70.43;102111.00;4995310;28;20026;-86
2023/06/04 02:28:21;;;;;;;4.18;2.58;;;;;;;12.37;70.20;102102.34;4991249;28;20033;-86
2023/06/04 02:30:46;;;;;;;5.50;2.58;;;;;;;12.35;69.79;102106.69;4975899;28;20022;-86
2023/06/04 02:33:12;;;;;;;5.57;2.80;;;;;;;12.32;68.46;102108.50;4993148;28;20022;-86
2023/06/04 02:35:38;;;;;;;5.28;2.80;;;;;;;12.33;70.13;102115.41;4993249;28;20022;-86
2023/06/04 02:38:03;;;;;;;4.13;2.42;;;;;;;12.33;70.52;102112.81;4996879;28;20044;-86
2023/06/04 02:40:28;;;;;;;4.82;3.00;;;;;;;12.30;70.26;102113.69;4975478;28;20086;-86
2023/06/04 02:42:55;;;;;;;4.72;2.58;;;;;;;12.26;70.65;102105.09;4991233;28;20049;-86
2023/06/04 02:45:21;;;;;;;6.38;2.80;;;;;;;12.23;70.81;102105.09;4992951;28;20034;-86
2023/06/04 02:47:46;;;;;;;4.22;2.65;;;;;;;12.21;70.58;102114.66;4992624;28;20026;-86
2023/06/04 02:50:15;;;;;;;4.50;2.60;;;;;;;12.19;71.94;102116.41;4975581;28;20269;-87
2023/06/04 02:52:40;;;;;;;5.75;2.65;;;;;;;12.14;71.92;102113.00;4974841;28;20130;-86
2023/06/04 02:55:07;;;;;;;6.00;2.70;;;;;;;12.08;71.63;102118.25;4975371;28;20022;-86
2023/06/04 02:57:33;;;;;;;5.68;2.72;;;;;;;12.08;72.35;102115.66;4975722;28;20022;-87
2023/06/04 02:59:59;;;;;;;5.25;3.05;;;;;;;12.06;72.11;102116.56;4991782;28;20077;-86
2023/06/04 03:02:25;;;;;;;3.88;2.40;;;;;;;12.03;73.08;102121.75;4989858;28;20054;-86
2023/06/04 03:04:51;;;;;;;4.40;2.58;;;;;;;11.95;72.94;102111.44;4988531;28;20018;-86
2023/06/04 03:07:20;;;;;;;4.50;2.58;;;;;;;11.95;73.27;102118.38;4997538;28;20034;-86
2023/06/04 03:09:48;;;;;;;5.03;3.00;;;;;;;11.89;73.01;102114.09;4993194;28;20516;-86
2023/06/04 03:12:14;;;;;;;4.97;2.40;;;;;;;11.86;74.04;102117.59;4991373;28;20513;-86
2023/06/04 03:14:39;;;;;;;4.53;2.33;;;;;;;11.79;73.42;102118.53;4992799;28;20034;-86
2023/06/04 03:17:10;;;;;;;4.57;2.53;;;;;;;11.79;74.27;102115.94;4991501;28;20030;-86
2023/06/04 03:19:42;;;;;;;4.25;2.50;;;;;;;11.75;73.39;102109.00;4992376;28;20026;-86
2023/06/04 03:22:08;;;;;;;5.72;2.63;;;;;;;11.74;74.56;102112.47;4973645;28;20129;-86
2023/06/04 03:24:36;;;;;;;3.97;2.38;;;;;;;11.72;74.41;102114.22;4992199;28;20062;-86
2023/06/04 03:27:02;;;;;;;6.03;2.47;;;;;;;11.64;73.41;102121.19;4991422;28;20427;-86
2023/06/04 03:29:27;;;;;;;6.75;2.97;;;;;;;11.62;74.05;102115.16;4975188;28;20435;-86
2023/06/04 03:31:53;;;;;;;5.15;2.70;;;;;;;11.64;74.55;102115.16;4989715;28;20084;-86
2023/06/04 03:34:18;;;;;;;4.03;2.33;;;;;;;11.62;74.23;102115.16;4979596;28;20031;-86
2023/06/04 03:36:43;;;;;;;4.30;2.42;;;;;;;11.60;74.01;102109.09;4991842;28;20435;-86
2023/06/04 03:39:08;;;;;;;3.55;2.28;;;;;;;11.60;74.14;102113.47;4992356;28;20525;-86
2023/06/04 03:41:34;;;;;;;3.95;2.40;;;;;;;11.55;71.88;102116.06;4990366;28;20519;-86
2023/06/04 03:43:59;;;;;;;4.07;2.70;;;;;;;11.53;73.11;102111.78;4974344;28;20034;-86
2023/06/04 03:46:31;;;;;;;5.10;2.70;;;;;;;11.49;73.32;102113.53;4972884;28;20109;-86
2023/06/04 03:48:57;;;;;;;5.03;2.65;;;;;;;11.52;72.95;102123.03;4991572;28;20308;-87
2023/06/04 03:51:22;;;;;;;4.68;2.55;;;;;;;11.53;74.20;102114.38;4991636;28;20050;-87
2023/06/04 03:53:50;;;;;;;5.95;2.50;;;;;;;11.51;73.24;102113.50;4991150;28;20026;-86
2023/06/04 03:56:15;;;;;;;5.32;2.42;;;;;;;11.50;74.47;102112.66;4990755;28;20062;-86
2023/06/04 03:58:40;;;;;;;5.43;2.53;;;;;;;11.52;73.65;102112.66;4974547;28;20105;-86
2023/06/04 04:01:06;;;;;;;4.07;2.50;;;;;;;11.53;74.60;102115.25;4991775;28;20497;-87
2023/06/04 04:03:34;;;;;;;5.00;2.47;;;;;;;11.55;75.11;102116.06;4994998;28;20061;-86
2023/06/04 04:06:00;;;;;;;5.47;2.60;;;;;;;11.53;74.79;102120.44;5007154;28;20057;-86
2023/06/04 04:08:26;;;;;;;5.05;2.70;;;;;;;11.49;74.93;102119.56;4991758;28;20478;-87
2023/06/04 04:10:51;;;;;;;4.45;2.42;;;;;;;11.45;72.63;102117.88;4990710;28;20053;-86
2023/06/04 04:13:17;;;;;;;4.65;2.75;;;;;;;11.44;74.32;102123.94;4990535;28;20038;-86
2023/06/04 04:15:42;;;;;;;4.63;2.53;;;;;;;11.45;75.16;102119.63;4991550;28;20019;-86
2023/06/04 04:18:10;;;;;;;4.20;2.70;;;;;;;11.48;75.18;102127.38;4974648;28;20029;-86
2023/06/04 04:20:36;;;;;;;4.50;2.60;;;;;;;11.43;74.56;102116.16;4984189;28;20031;-86
2023/06/04 04:23:01;;;;;;;4.03;2.45;;;;;;;11.48;76.03;102124.78;4991684;28;20029;-87
2023/06/04 04:25:27;;;;;;;4.40;2.50;;;;;;;11.47;76.21;102117.84;4990836;28;20170;-86
2023/06/04 04:27:52;;;;;;;4.75;2.70;;;;;;;11.48;75.05;102124.78;4990768;28;20045;-86
2023/06/04 04:30:18;;;;;;;5.47;2.42;;;;;;;11.49;76.02;102110.91;4980847;28;20391;-86
2023/06/04 04:32:48;;;;;;;4.85;2.38;;;;;;;11.49;76.48;102118.72;4991226;28;20045;-86
2023/06/04 04:35:14;;;;;;;5.85;2.75;;;;;;;11.49;75.74;102124.75;4972160;28;20065;-86
2023/06/04 04:37:40;;;;;;;4.60;2.72;;;;;;;11.52;75.59;102123.03;4978100;28;20037;-86
2023/06/04 04:40:09;;;;;;;5.57;2.80;;;;;;;11.53;75.66;102115.25;4973426;28;20034;-86
2023/06/04 04:42:35;;;;;;;4.97;2.40;;;;;;;11.59;75.38;102127.31;4990572;28;20038;-86
2023/06/04 04:45:00;;;;;;;3.92;2.35;;;;;;;11.59;76.74;102117.78;4994984;28;20026;-86
2023/06/04 04:47:26;;;;;;;5.68;2.80;;;;;;;11.62;76.49;102117.75;4995057;28;20060;-86
2023/06/04 04:49:51;;;;;;;4.85;2.70;;;;;;;11.62;77.32;102115.16;5002603;28;20104;-86
2023/06/04 04:52:17;;;;;;;4.30;2.58;;;;;;;11.71;75.88;102124.63;5011077;28;20041;-86
2023/06/04 04:54:42;;;;;;;6.45;2.78;;;;;;;11.72;75.57;102121.16;4995340;28;20022;-86
2023/06/04 04:57:07;;;;;;;3.97;2.70;;;;;;;11.72;73.69;102122.00;4975964;28;20418;-86
2023/06/04 04:59:33;;;;;;;6.15;3.10;;;;;;;11.78;76.19;102126.31;4995115;28;20058;-87
2023/06/04 05:01:58;;;;;;;4.40;2.72;;;;;;;11.82;76.59;102123.69;4976189;28;20026;-86
2023/06/04 05:04:23;;;;;;;6.35;3.00;;;;;;;11.85;77.27;102123.66;4993316;28;20034;-86
2023/06/04 05:06:55;;;;;;;5.63;2.67;;;;;;;11.89;74.90;102129.69;4994803;28;20387;-86
2023/06/04 05:09:23;;;;;;;7.15;2.70;;;;;;;11.96;74.77;102133.09;4995467;28;20030;-87
2023/06/04 05:11:48;;;;;;;7.60;2.90;;;;;;;12.00;76.14;102137.41;4992947;28;20109;-87
2023/06/04 05:14:13;;;;;;;5.18;3.00;;;;;;;12.05;76.37;102127.81;4982514;28;20050;-86
2023/06/04 05:16:40;;;;;;;5.30;2.90;;;;;;;12.13;75.95;102131.22;4994336;28;20027;-86
2023/06/04 05:19:06;;;;;;;6.28;3.00;;;;;;;12.16;76.20;102133.78;4979823;28;20512;-86
2023/06/04 05:21:31;;;;;;;5.53;2.90;;;;;;;12.23;78.01;102135.44;5000888;28;20030;-86
2023/06/04 05:23:57;;;;;;;4.53;2.72;;;;;;;12.29;77.32;102127.56;4977126;28;20395;-86
2023/06/04 05:26:25;;;;;;;5.43;2.80;;;;;;;12.35;76.20;102130.09;4992900;28;20510;-86
2023/06/04 05:28:51;;;;;;;5.35;2.67;;;;;;;12.45;77.26;102130.88;4994552;28;20298;-87
2023/06/04 05:31:18;;;;;;;4.50;2.60;;;;;;;12.52;76.39;102122.13;4994970;28;20182;-86
2023/06/04 05:33:43;;;;;;;5.82;2.90;;;;;;;12.69;75.47;102135.81;4976054;28;20147;-86
2023/06/04 05:36:08;;;;;;;5.72;3.03;;;;;;;12.75;74.15;102129.69;5000425;28;20025;-87
2023/06/04 05:38:35;;;;;;;8.43;3.03;;;;;;;12.83;74.09;102139.09;4997819;28;20030;-86
2023/06/04 05:41:01;;;;;;;5.55;3.00;;;;;;;12.90;72.13;102134.66;4992153;28;20038;-87
2023/06/04 05:43:27;;;;;;;5.03;2.90;;;;;;;12.96;70.71;102142.44;4992301;28;20033;-86
2023/06/04 05:45:52;;;;;;;5.90;3.30;;;;;;;13.03;74.00;102131.91;5001682;28;20030;-86
2023/06/04 05:48:18;;;;;;;5.85;3.05;;;;;;;13.07;72.67;102132.72;4998891;28;20427;-89
2023/06/04 05:50:49;;;;;;;6.00;3.25;;;;;;;13.13;69.95;102129.22;4998539;28;20041;-89
2023/06/04 05:53:27;;;;;;;7.20;3.15;;;;;;;13.23;72.56;102133.44;4991827;28;20026;-89
2023/06/04 05:55:52;;;;;;;7.10;3.25;;;;;;;13.29;69.25;102133.34;4977554;28;20026;-89
2023/06/04 05:58:18;;;;;;;4.93;3.20;;;;;;;13.34;69.35;102137.59;4977202;28;20040;-89
2023/06/04 06:00:44;;;;;;;4.78;2.90;;;;;;;13.48;71.03;102131.31;4976721;28;20277;-89
2023/06/04 06:03:09;;;;;;;6.07;3.00;;;;;;;13.57;71.48;102139.00;4994719;28;20042;-89
2023/06/04 06:05:35;;;;;;;6.07;3.10;;;;;;;13.69;69.96;102137.06;4994673;28;20027;-89
2023/06/04 06:08:01;;;;;;;4.50;2.88;;;;;;;13.88;72.93;102131.53;4977638;28;20022;-90
2023/06/04 06:10:26;;;;;;;4.88;3.10;;;;;;;13.97;67.37;102134.88;4975584;28;20080;-90
2023/06/04 06:12:52;;;;;;;5.40;3.20;;;;;;;14.07;69.37;102138.16;4982844;28;20022;-89
2023/06/04 06:15:17;;;;;;;4.97;3.30;;;;;;;14.24;65.74;102138.72;4997397;28;20066;-89
2023/06/04 06:17:43;;;;;;;4.38;2.83;;;;;;;14.55;68.10;102145.13;4983603;28;20354;-89
2023/06/04 06:20:08;;;;;;;7.00;3.05;;;;;;;14.75;66.91;102136.03;4993889;28;20488;-89
2023/06/04 06:22:35;;;;;;;6.50;3.13;;;;;;;14.90;62.41;102140.94;4994746;28;20029;-90
2023/06/04 06:25:02;;;;;;;6.30;3.13;;;;;;;15.01;62.18;102139.81;4992503;28;20018;-89
2023/06/04 06:27:27;;;;;;;5.60;3.10;;;;;;;15.10;65.90;102136.16;4960126;28;20027;-89
2023/06/04 06:29:52;;;;;;;4.80;3.03;;;;;;;15.08;64.40;102140.53;4975488;28;20104;-91
2023/06/04 06:32:18;;;;;;;5.60;3.35;;;;;;;14.99;65.51;102141.63;4992930;28;20109;-90
2023/06/04 06:34:43;;;;;;;4.90;2.95;;;;;;;14.97;65.51;102143.41;4995306;28;20400;-90
2023/06/04 06:37:09;;;;;;;6.30;3.20;;;;;;;14.94;64.24;102145.22;4996339;28;20045;-91
2023/06/04 06:39:34;;;;;;;5.40;3.40;;;;;;;14.92;65.41;102141.78;4990748;28;20026;-90
2023/06/04 06:42:00;;;;;;;4.45;3.10;;;;;;;14.99;65.74;102145.97;4974210;28;20495;-90
2023/06/04 06:44:25;;;;;;;6.47;3.15;;;;;;;15.16;64.29;102162.13;4994141;28;20038;-90
2023/06/04 06:46:50;;;;;;;6.47;3.17;;;;;;;15.19;61.06;102140.31;4992131;28;20037;-89
2023/06/04 06:49:16;;;;;;;8.00;3.00;;;;;;;15.29;64.55;102147.91;4992321;28;20022;-90
2023/06/04 06:51:41;;;;;;;6.63;3.50;;;;;;;15.40;63.80;102151.16;4992692;28;20042;-89
2023/06/04 06:54:08;;;;;;;5.90;3.00;;;;;;;15.52;63.29;102151.75;4976978;28;20027;-90
2023/06/04 06:56:34;;;;;;;5.05;3.00;;;;;;;15.69;61.48;102155.72;4991587;28;20085;-90
2023/06/04 06:58:59;;;;;;;5.97;3.30;;;;;;;15.93;61.35;102153.41;4994051;28;20058;-89
2023/06/04 07:01:25;;;;;;;5.13;3.13;;;;;;;16.21;59.23;102164.91;4973033;28;20027;-90
2023/06/04 07:03:50;;;;;;;5.15;3.17;;;;;;;16.44;55.46;102162.56;4964516;28;20026;-90
2023/06/04 07:06:16;;;;;;;7.28;3.30;;;;;;;16.96;57.05;102166.34;4975369;28;20088;-90
2023/06/04 07:08:42;;;;;;;5.05;3.05;;;;;;;17.26;58.25;102157.56;4994195;28;20550;-90
2023/06/04 07:11:11;;;;;;;4.57;3.20;;;;;;;17.52;51.94;102166.41;4995093;28;20395;-90
2023/06/04 07:13:37;;;;;;;6.95;3.28;;;;;;;17.59;54.02;102168.78;4973864;28;20030;-90
2023/06/04 07:16:02;;;;;;;6.78;3.67;;;;;;;17.55;51.43;102168.91;4991647;28;20111;-89
2023/06/04 07:18:27;;;;;;;5.80;3.15;;;;;;;17.61;55.27;102174.00;4993840;28;20037;-90
2023/06/04 07:20:53;;;;;;;6.53;3.00;;;;;;;17.68;55.51;102167.66;4994190;28;20030;-91
2023/06/04 07:23:18;;;;;;;6.03;3.25;;;;;;;17.75;53.96;102169.19;4993287;28;20289;-90
2023/06/04 07:25:44;;;;;;;5.25;3.33;;;;;;;17.83;52.37;102163.69;4974945;28;20022;-90
2023/06/04 07:28:09;;;;;;;6.75;3.00;;;;;;;17.86;55.28;102159.22;4983115;28;20038;-91
2023/06/04 07:30:36;;;;;;;5.45;3.55;;;;;;;17.90;50.04;102163.44;4990273;28;20102;-92
2023/06/04 07:33:02;;;;;;;6.22;3.35;;;;;;;17.98;51.63;102169.28;4990919;28;20034;-90
2023/06/04 07:35:27;;;;;;;6.57;3.47;;;;;;;18.07;52.43;102160.25;4978305;28;20065;-91
2023/06/04 07:38:09;;;;;;;5.97;3.10;;;;;;;18.20;52.24;102160.69;4974949;28;20560;-91
2023/06/04 07:40:34;;;;;;;5.85;3.60;;;;;;;18.30;52.65;102162.09;4994299;28;20495;-90
2023/06/04 07:43:00;;;;;;;6.22;3.42;;;;;;;18.43;47.46;102164.22;4994191;28;20507;-91
2023/06/04 07:45:25;;;;;;;5.45;3.08;;;;;;;18.82;51.29;102155.88;4970983;28;20023;-91
2023/06/04 07:47:50;;;;;;;7.22;3.00;;;;;;;19.67;47.67;102160.44;4994627;28;20589;-90
2023/06/04 07:50:16;;;;;;;4.40;2.70;;;;;;;20.70;46.69;102160.44;4977053;28;20094;-91
2023/06/04 07:52:41;;;;;;;4.88;2.80;;;;;;;21.68;40.18;102169.00;4976963;28;20029;-91
2023/06/04 07:55:08;;;;;;;3.92;2.72;;;;;;;22.30;41.61;102169.44;4983629;28;20022;-91
2023/06/04 07:57:34;;;;;;;4.22;2.80;;;;;;;22.95;40.41;102171.28;4993925;28;20634;-90
2023/06/04 07:59:59;;;;;;;4.35;2.50;;;;;;;23.38;38.18;102160.97;4993903;28;20057;-91
2023/06/04 08:02:25;;;;;;;4.03;2.67;;;;;;;23.51;37.50;102152.28;5000067;28;20278;-92
2023/06/04 08:04:51;;;;;;;5.65;2.40;;;;;;;23.51;38.69;102152.28;4992101;28;20022;-93
2023/06/04 08:07:16;;;;;;;5.50;2.67;;;;;;;23.42;37.70;102162.50;4994080;28;20088;-92
2023/06/04 08:09:43;;;;;;;5.57;2.45;;;;;;;23.31;37.12;102149.03;4972235;28;20105;-91
2023/06/04 08:12:09;;;;;;;6.90;2.63;;;;;;;23.36;37.86;102161.03;4972839;28;20035;-92
2023/06/04 08:14:35;;;;;;;5.47;2.35;;;;;;;23.43;36.46;102165.06;4985404;28;20015;-93
2023/06/04 08:17:00;;;;;;;3.03;2.40;;;;;;;23.40;35.41;102159.09;4993402;28;20026;-93
2023/06/04 08:19:26;;;;;;;3.33;2.10;;;;;;;23.52;36.44;102151.34;4983108;28;20034;-91
2023/06/04 08:21:51;;;;;;;3.15;2.17;;;;;;;23.51;34.52;102162.00;5000401;28;20085;-93
2023/06/04 08:24:16;;;;;;;3.33;2.22;;;;;;;23.67;34.72;102162.00;4997642;28;20090;-92
2023/06/04 08:26:42;;;;;;;5.13;2.28;;;;;;;23.64;35.29;102155.06;4982763;28;20026;-92
2023/06/04 08:29:07;;;;;;;3.40;2.58;;;;;;;23.78;33.95;102171.03;4967021;28;20105;-93
2023/06/04 08:31:33;;;;;;;5.63;2.50;;;;;;;23.87;34.58;102157.25;4993459;28;20034;-92
2023/06/04 08:33:58;;;;;;;3.28;2.25;;;;;;;24.01;35.62;102154.66;4980200;28;20037;-93
2023/06/04 08:36:25;;;;;;;4.35;2.20;;;;;;;24.25;34.71;102170.91;4983389;28;20034;-93
2023/06/04 08:38:52;;;;;;;3.53;2.00;;;;;;;24.53;36.40;102164.78;4995182;28;20030;-91
2023/06/04 08:41:38;;;;;;;3.58;2.13;;;;;;;24.85;36.05;102169.88;4991740;28;20101;-93
2023/06/04 08:44:06;;;;;;;3.10;2.10;;;;;;;24.83;29.06;102161.19;4996670;28;20045;-91
2023/06/04 08:46:39;;;;;;;5.40;2.40;;;;;;;24.75;31.94;102156.38;4993785;28;20276;-93
2023/06/04 08:49:06;;;;;;;3.37;2.20;;;;;;;24.71;31.35;102160.13;4997457;28;20022;-89
2023/06/04 08:51:36;;;;;;;2.88;2.00;;;;;;;24.58;30.88;102162.69;4980002;28;20038;-89
2023/06/04 08:54:04;;;;;;;3.67;2.00;;;;;;;24.56;30.05;102161.97;4980714;28;20054;-89
2023/06/04 08:56:32;;;;;;;4.78;1.88;;;;;;;24.70;31.41;102177.03;4982711;28;20031;-88
2023/06/04 08:59:01;;;;;;;3.72;1.90;;;;;;;24.88;30.60;102165.25;4992048;28;20029;-89
2023/06/04 09:01:27;;;;;;;2.67;1.85;;;;;;;25.07;29.13;102170.28;4999410;28;20026;-89
2023/06/04 09:03:52;;;;;;;2.97;1.70;;;;;;;25.02;29.42;102167.94;4980756;28;20097;-89
2023/06/04 09:06:18;;;;;;;2.80;1.90;;;;;;;24.93;31.51;102168.50;4996352;28;20018;-89
2023/06/04 09:08:45;;;;;;;2.53;1.80;;;;;;;24.99;28.53;102170.75;4997869;28;20030;-89
2023/06/04 09:11:13;;;;;;;3.90;1.90;;;;;;;25.02;30.34;102165.28;4984240;28;20090;-89
2023/06/04 09:13:43;;;;;;;3.65;1.70;;;;;;;25.09;30.06;102173.69;5004889;28;20023;-90
2023/06/04 09:16:08;;;;;;;2.33;1.45;;;;;;;25.11;29.44;102169.16;4977787;28;20026;-89
2023/06/04 09:18:34;;;;;;;3.30;1.70;;;;;;;25.03;28.86;102169.63;4995953;28;20109;-88
2023/06/04 09:21:05;;;;;;;3.25;1.77;;;;;;;25.04;28.62;102175.81;4980053;28;20042;-89
2023/06/04 09:23:31;;;;;;;4.32;1.60;;;;;;;24.87;26.32;102173.31;4998074;28;20034;-89
2023/06/04 09:26:06;;;;;;;2.75;1.50;;;;;;;24.80;26.03;102172.84;4996474;28;20475;-90
2023/06/04 09:28:32;;;;;;;2.70;1.55;;;;;;;24.63;27.10;102165.94;4979298;28;20030;-91
2023/06/04 09:30:57;;;;;;;2.00;1.40;;;;;;;24.69;27.38;102178.81;4981496;28;20026;-90
2023/06/04 09:33:24;;;;;;;2.67;1.70;;;;;;;24.55;29.07;102170.00;4983387;28;20356;-89
2023/06/04 09:35:57;;;;;;;2.88;1.60;;;;;;;24.35;28.39;102177.38;5001129;28;20050;-89
2023/06/04 09:38:23;;;;;;;4.05;1.60;;;;;;;24.44;26.80;102170.63;4983605;28;20121;-89
2023/06/04 09:40:49;;;;;;;2.45;1.50;;;;;;;24.58;30.03;102172.44;4973518;28;20071;-89
2023/06/04 09:43:43;;;;;;;3.70;1.35;;;;;;;24.68;27.93;102176.25;4963475;28;20108;-89
2023/06/04 09:46:16;;;;;;;2.65;1.30;;;;;;;24.46;27.29;102166.09;4979010;28;20031;-90
2023/06/04 09:48:42;;;;;;;2.10;1.70;;;;;;;24.31;28.02;102165.22;4963850;28;20102;-90
2023/06/04 09:51:19;;;;;;;2.05;1.52;;;;;;;24.26;28.08;102162.00;4980911;28;20026;-90
2023/06/04 09:53:56;;;;;;;3.55;1.73;;;;;;;24.27;27.64;102160.22;4981076;28;20115;-89
2023/06/04 09:56:22;;;;;;;2.28;1.60;;;;;;;24.29;27.09;102163.63;4979130;28;20074;-89
2023/06/04 09:58:54;;;;;;;2.40;1.65;;;;;;;24.22;28.51;102160.50;4963176;28;20027;-89
2023/06/04 10:01:22;;;;;;;3.58;1.45;;;;;;;24.36;29.51;102164.97;4963083;28;20113;-90
2023/06/04 10:03:50;;;;;;;1.95;1.52;;;;;;;24.39;27.44;102167.41;4979689;28;20033;-91
2023/06/04 10:06:18;;;;;;;2.25;1.70;;;;;;;24.19;25.45;102176.56;4981095;28;20023;-90
2023/06/04 10:08:45;;;;;;;2.45;1.40;;;;;;;24.09;28.07;102158.66;4977848;28;20015;-91
2023/06/04 10:11:13;;;;;;;2.85;1.48;;;;;;;24.18;29.83;102158.94;4975579;28;20043;-90
2023/06/04 10:13:51;;;;;;;3.58;1.50;;;;;;;24.16;27.98;102163.47;4976285;28;20057;-90
2023/06/04 10:16:20;;;;;;;4.38;1.70;;;;;;;24.20;27.13;102172.13;4980533;28;20026;-90
2023/06/04 10:18:45;;;;;;;4.50;1.67;;;;;;;24.14;27.83;102157.41;4963307;28;20027;-89
2023/06/04 10:21:13;;;;;;;1.70;1.60;;;;;;;24.32;28.64;102155.47;4980751;28;20034;-89
2023/06/04 10:23:39;;;;;;;1.60;1.40;;;;;;;24.33;26.18;102157.19;4980388;28;20038;-90
2023/06/04 10:26:04;;;;;;;2.05;1.60;;;;;;;24.28;26.18;102159.28;4976246;28;20035;-90
2023/06/04 10:28:30;;;;;;;2.42;1.60;;;;;;;24.18;26.83;102160.72;4980628;28;20027;-91
2023/06/04 10:30:55;;;;;;;2.92;1.58;;;;;;;24.22;28.49;102162.28;4979779;28;20026;-90
2023/06/04 10:33:24;;;;;;;2.15;1.60;;;;;;;24.18;27.17;102166.03;4962540;28;20037;-90
2023/06/04 10:35:53;;;;;;;5.10;1.60;;;;;;;24.10;28.87;102160.31;4961544;28;20023;-90
2023/06/04 10:38:21;;;;;;;3.92;1.35;;;;;;;24.17;28.98;102156.38;4972007;28;20057;-92
2023/06/04 10:40:56;;;;;;;1.80;1.60;;;;;;;24.20;29.93;102153.56;4961221;28;20043;-92
2023/06/04 10:43:37;;;;;;;4.90;1.67;;;;;;;24.17;29.98;102161.66;4962522;28;20452;-92
2023/06/04 10:46:19;;;;;;;4.60;1.83;;;;;;;24.21;30.92;102165.88;4979054;28;20084;-91
2023/06/04 10:48:56;;;;;;;4.85;1.63;;;;;;;24.19;31.22;102158.03;4962684;28;20046;-91
2023/06/04 10:51:32;;;;;;;2.85;1.40;;;;;;;24.29;29.53;102153.03;4960775;28;20034;-91
2023/06/04 10:53:59;;;;;;;3.50;1.50;;;;;;;24.19;30.69;102149.19;4965934;28;20054;-92
2023/06/04 10:56:36;;;;;;;5.03;1.90;;;;;;;24.34;31.55;102159.75;4979595;28;20058;-91
2023/06/04 10:59:19;;;;;;;3.55;1.90;;;;;;;24.37;30.10;102164.00;4947984;28;20219;-92
2023/06/04 11:01:45;;;;;;;5.00;1.83;;;;;;;24.31;30.19;102164.38;4958672;28;20026;-91
2023/06/04 11:04:27;;;;;;;3.38;1.75;;;;;;;24.11;28.66;102164.69;4975903;28;20090;-90
2023/06/04 11:07:08;;;;;;;2.78;1.50;;;;;;;23.90;28.83;102162.34;4959223;28;20050;-92
2023/06/04 11:09:37;;;;;;;3.08;1.77;;;;;;;23.77;30.22;102164.00;4962104;28;20033;-92
2023/06/04 11:12:05;;;;;;;3.97;1.80;;;;;;;23.76;29.32;102157.00;4961301;28;20114;-90
2023/06/04 11:14:31;;;;;;;2.28;1.70;;;;;;;23.75;30.61;102154.44;4961368;28;20053;-90
2023/06/04 11:16:56;;;;;;;2.45;1.65;;;;;;;23.76;30.37;102137.63;4961382;28;20023;-91
2023/06/04 11:19:22;;;;;;;3.90;1.80;;;;;;;23.66;30.54;102136.47;4976687;28;20030;-90
2023/06/04 11:21:49;;;;;;;3.40;1.80;;;;;;;23.91;32.28;102153.47;4958164;28;20034;-92
2023/06/04 11:24:16;;;;;;;2.58;1.65;;;;;;;23.94;31.58;102144.50;4954430;28;20023;-90